sensor_id;sensor_type;location;lat;lon;timestamp;P1;durP1;ratioP1;P2;durP2;ratioP2
76617;SDS011;65509;42.816;74.648;2023-04-15T00:02:15;36.88;;;6.15;;
76617;SDS011;65509;42.816;74.648;2023-04-15T00:04:42;33.25;;;7.18;;
76617;SDS011;65509;42.816;74.648;2023-04-15T00:07:08;42.42;;;7.00;;
76617;SDS011;65509;42.816;74.648;2023-04-15T00:09:34;41.35;;;7.75;;
76617;SDS011;65509;42.816;74.648;2023-04-15T00:11:59;46.42;;;7.05;;
76617;SDS011;65509;42.816;74.648;2023-04-15T00:14:26;44.53;;;7.45;;
76617;SDS011;65509;42.816;74.648;2023-04-15T00:16:51;273.90;;;20.48;;
76617;SDS011;65509;42.816;74.648;2023-04-15T00:19:20;194.68;;;16.88;;
76617;SDS011;65509;42.816;74.648;2023-04-15T00:21:45;213.85;;;18.48;;
76617;SDS011;65509;42.816;74.648;2023-04-15T00:24:11;232.35;;;18.85;;
76617;SDS011;65509;42.816;74.648;2023-04-15T00:26:37;212.68;;;18.05;;
76617;SDS011;65509;42.816;74.648;2023-04-15T00:29:03;181.68;;;17.50;;
76617;SDS011;65509;42.816;74.648;2023-04-15T00:31:29;161.80;;;13.35;;
76617;SDS011;65509;42.816;74.648;2023-04-15T00:33:55;164.88;;;14.95;;
76617;SDS011;65509;42.816;74.648;2023-04-15T00:36:21;138.48;;;13.40;;
76617;SDS011;65509;42.816;74.648;2023-04-15T00:38:47;111.88;;;14.43;;
76617;SDS011;65509;42.816;74.648;2023-04-15T00:41:13;102.75;;;11.23;;
76617;SDS011;65509;42.816;74.648;2023-04-15T00:43:38;116.85;;;12.27;;
76617;SDS011;65509;42.816;74.648;2023-04-15T00:46:04;110.13;;;10.63;;
76617;SDS011;65509;42.816;74.648;2023-04-15T00:48:30;126.30;;;12.38;;
76617;SDS011;65509;42.816;74.648;2023-04-15T00:50:56;172.52;;;13.27;;
76617;SDS011;65509;42.816;74.648;2023-04-15T00:53:22;98.68;;;9.60;;
76617;SDS011;65509;42.816;74.648;2023-04-15T00:55:47;110.20;;;10.18;;
76617;SDS011;65509;42.816;74.648;2023-04-15T00:58:13;118.32;;;9.15;;
76617;SDS011;65509;42.816;74.648;2023-04-15T01:00:39;88.07;;;8.02;;
76617;SDS011;65509;42.816;74.648;2023-04-15T01:03:05;88.45;;;9.15;;
76617;SDS011;65509;42.816;74.648;2023-04-15T01:05:31;90.82;;;7.45;;
76617;SDS011;65509;42.816;74.648;2023-04-15T01:07:56;63.95;;;7.55;;
76617;SDS011;65509;42.816;74.648;2023-04-15T01:10:22;67.97;;;8.80;;
76617;SDS011;65509;42.816;74.648;2023-04-15T01:12:47;75.28;;;9.50;;
76617;SDS011;65509;42.816;74.648;2023-04-15T01:15:13;83.65;;;9.55;;
76617;SDS011;65509;42.816;74.648;2023-04-15T01:17:38;75.35;;;7.50;;
76617;SDS011;65509;42.816;74.648;2023-04-15T01:20:04;95.57;;;8.95;;
76617;SDS011;65509;42.816;74.648;2023-04-15T01:22:30;70.63;;;6.93;;
76617;SDS011;65509;42.816;74.648;2023-04-15T01:25:00;70.20;;;7.38;;
76617;SDS011;65509;42.816;74.648;2023-04-15T01:27:26;64.28;;;7.60;;
76617;SDS011;65509;42.816;74.648;2023-04-15T01:29:51;82.63;;;8.05;;
76617;SDS011;65509;42.816;74.648;2023-04-15T01:32:17;93.00;;;7.97;;
76617;SDS011;65509;42.816;74.648;2023-04-15T01:34:43;115.32;;;10.27;;
76617;SDS011;65509;42.816;74.648;2023-04-15T01:37:08;98.57;;;9.70;;
76617;SDS011;65509;42.816;74.648;2023-04-15T01:39:34;88.65;;;9.50;;
76617;SDS011;65509;42.816;74.648;2023-04-15T01:42:00;106.50;;;9.38;;
76617;SDS011;65509;42.816;74.648;2023-04-15T01:44:25;96.20;;;9.60;;
76617;SDS011;65509;42.816;74.648;2023-04-15T01:46:51;82.40;;;8.57;;
76617;SDS011;65509;42.816;74.648;2023-04-15T01:49:17;69.90;;;8.05;;
76617;SDS011;65509;42.816;74.648;2023-04-15T01:51:43;88.10;;;9.50;;
76617;SDS011;65509;42.816;74.648;2023-04-15T01:54:08;99.35;;;8.98;;
76617;SDS011;65509;42.816;74.648;2023-04-15T01:56:34;92.40;;;7.82;;
76617;SDS011;65509;42.816;74.648;2023-04-15T01:58:59;92.38;;;8.02;;
76617;SDS011;65509;42.816;74.648;2023-04-15T02:01:25;70.07;;;7.72;;
76617;SDS011;65509;42.816;74.648;2023-04-15T02:03:51;62.92;;;7.65;;
76617;SDS011;65509;42.816;74.648;2023-04-15T02:06:16;83.30;;;9.00;;
76617;SDS011;65509;42.816;74.648;2023-04-15T02:08:45;59.53;;;7.43;;
76617;SDS011;65509;42.816;74.648;2023-04-15T02:11:20;74.55;;;5.85;;
76617;SDS011;65509;42.816;74.648;2023-04-15T02:13:47;68.95;;;7.35;;
76617;SDS011;65509;42.816;74.648;2023-04-15T02:16:18;77.28;;;7.97;;
76617;SDS011;65509;42.816;74.648;2023-04-15T02:18:44;53.85;;;5.93;;
76617;SDS011;65509;42.816;74.648;2023-04-15T02:21:10;53.60;;;6.57;;
76617;SDS011;65509;42.816;74.648;2023-04-15T02:23:36;53.10;;;5.70;;
76617;SDS011;65509;42.816;74.648;2023-04-15T02:26:01;64.07;;;6.43;;
76617;SDS011;65509;42.816;74.648;2023-04-15T02:28:27;65.25;;;6.97;;
76617;SDS011;65509;42.816;74.648;2023-04-15T02:30:52;50.08;;;5.78;;
76617;SDS011;65509;42.816;74.648;2023-04-15T02:33:20;76.43;;;9.35;;
76617;SDS011;65509;42.816;74.648;2023-04-15T02:35:45;47.75;;;5.43;;
76617;SDS011;65509;42.816;74.648;2023-04-15T02:38:11;62.17;;;9.10;;
76617;SDS011;65509;42.816;74.648;2023-04-15T02:40:38;53.03;;;6.68;;
76617;SDS011;65509;42.816;74.648;2023-04-15T02:43:03;50.65;;;6.53;;
76617;SDS011;65509;42.816;74.648;2023-04-15T02:45:31;55.85;;;7.15;;
76617;SDS011;65509;42.816;74.648;2023-04-15T02:47:56;53.17;;;6.63;;
76617;SDS011;65509;42.816;74.648;2023-04-15T02:50:22;55.03;;;8.05;;
76617;SDS011;65509;42.816;74.648;2023-04-15T02:52:48;53.53;;;6.13;;
76617;SDS011;65509;42.816;74.648;2023-04-15T02:55:14;54.85;;;6.53;;
76617;SDS011;65509;42.816;74.648;2023-04-15T02:57:39;49.08;;;6.13;;
76617;SDS011;65509;42.816;74.648;2023-04-15T03:00:05;44.78;;;6.63;;
76617;SDS011;65509;42.816;74.648;2023-04-15T03:02:34;60.38;;;6.30;;
76617;SDS011;65509;42.816;74.648;2023-04-15T03:05:00;37.58;;;5.82;;
76617;SDS011;65509;42.816;74.648;2023-04-15T03:07:25;50.17;;;6.20;;
76617;SDS011;65509;42.816;74.648;2023-04-15T03:09:51;38.78;;;5.85;;
76617;SDS011;65509;42.816;74.648;2023-04-15T03:12:16;60.40;;;6.75;;
76617;SDS011;65509;42.816;74.648;2023-04-15T03:14:42;38.83;;;5.18;;
76617;SDS011;65509;42.816;74.648;2023-04-15T03:17:07;52.08;;;5.60;;
76617;SDS011;65509;42.816;74.648;2023-04-15T03:19:32;39.30;;;4.47;;
76617;SDS011;65509;42.816;74.648;2023-04-15T03:21:58;44.40;;;5.47;;
76617;SDS011;65509;42.816;74.648;2023-04-15T03:24:23;46.45;;;6.10;;
76617;SDS011;65509;42.816;74.648;2023-04-15T03:26:49;42.83;;;5.50;;
76617;SDS011;65509;42.816;74.648;2023-04-15T03:29:15;46.60;;;5.45;;
76617;SDS011;65509;42.816;74.648;2023-04-15T03:31:40;49.13;;;5.22;;
76617;SDS011;65509;42.816;74.648;2023-04-15T03:34:06;45.38;;;5.22;;
76617;SDS011;65509;42.816;74.648;2023-04-15T03:36:31;36.92;;;4.97;;
76617;SDS011;65509;42.816;74.648;2023-04-15T03:38:59;36.78;;;5.70;;
76617;SDS011;65509;42.816;74.648;2023-04-15T03:41:26;50.28;;;7.28;;
76617;SDS011;65509;42.816;74.648;2023-04-15T03:43:55;45.55;;;5.63;;
76617;SDS011;65509;42.816;74.648;2023-04-15T03:46:21;48.00;;;6.75;;
76617;SDS011;65509;42.816;74.648;2023-04-15T03:48:46;44.10;;;5.88;;
76617;SDS011;65509;42.816;74.648;2023-04-15T03:51:12;44.00;;;5.18;;
76617;SDS011;65509;42.816;74.648;2023-04-15T03:53:38;44.58;;;5.55;;
76617;SDS011;65509;42.816;74.648;2023-04-15T03:56:03;34.80;;;5.28;;
76617;SDS011;65509;42.816;74.648;2023-04-15T03:58:29;44.95;;;5.78;;
76617;SDS011;65509;42.816;74.648;2023-04-15T04:00:54;38.97;;;5.45;;
76617;SDS011;65509;42.816;74.648;2023-04-15T04:03:20;42.47;;;5.88;;
76617;SDS011;65509;42.816;74.648;2023-04-15T04:05:45;52.33;;;6.15;;
76617;SDS011;65509;42.816;74.648;2023-04-15T04:08:11;36.95;;;5.28;;
76617;SDS011;65509;42.816;74.648;2023-04-15T04:10:38;57.45;;;5.97;;
76617;SDS011;65509;42.816;74.648;2023-04-15T04:13:06;44.08;;;6.38;;
76617;SDS011;65509;42.816;74.648;2023-04-15T04:15:32;44.00;;;6.05;;
76617;SDS011;65509;42.816;74.648;2023-04-15T04:17:57;46.67;;;5.95;;
76617;SDS011;65509;42.816;74.648;2023-04-15T04:20:23;48.30;;;6.95;;
76617;SDS011;65509;42.816;74.648;2023-04-15T04:22:49;38.80;;;5.78;;
76617;SDS011;65509;42.816;74.648;2023-04-15T04:25:14;46.75;;;6.28;;
76617;SDS011;65509;42.816;74.648;2023-04-15T04:27:40;46.78;;;5.63;;
76617;SDS011;65509;42.816;74.648;2023-04-15T04:30:06;31.45;;;4.25;;
76617;SDS011;65509;42.816;74.648;2023-04-15T04:32:32;38.22;;;5.80;;
76617;SDS011;65509;42.816;74.648;2023-04-15T04:34:57;29.90;;;5.68;;
76617;SDS011;65509;42.816;74.648;2023-04-15T04:37:26;50.63;;;5.60;;
76617;SDS011;65509;42.816;74.648;2023-04-15T04:39:54;41.83;;;5.78;;
76617;SDS011;65509;42.816;74.648;2023-04-15T04:42:20;40.58;;;5.68;;
76617;SDS011;65509;42.816;74.648;2023-04-15T04:44:46;36.53;;;5.70;;
76617;SDS011;65509;42.816;74.648;2023-04-15T04:47:14;19.75;;;4.05;;
76617;SDS011;65509;42.816;74.648;2023-04-15T04:49:40;38.72;;;5.13;;
76617;SDS011;65509;42.816;74.648;2023-04-15T04:52:08;23.33;;;4.65;;
76617;SDS011;65509;42.816;74.648;2023-04-15T04:54:36;26.35;;;5.22;;
76617;SDS011;65509;42.816;74.648;2023-04-15T04:57:02;29.50;;;4.10;;
76617;SDS011;65509;42.816;74.648;2023-04-15T04:59:27;31.92;;;5.15;;
76617;SDS011;65509;42.816;74.648;2023-04-15T05:01:53;31.65;;;5.13;;
76617;SDS011;65509;42.816;74.648;2023-04-15T05:04:18;35.17;;;5.97;;
76617;SDS011;65509;42.816;74.648;2023-04-15T05:06:44;20.35;;;3.25;;
76617;SDS011;65509;42.816;74.648;2023-04-15T05:09:09;22.38;;;4.10;;
76617;SDS011;65509;42.816;74.648;2023-04-15T05:11:35;28.77;;;3.78;;
76617;SDS011;65509;42.816;74.648;2023-04-15T05:14:01;26.50;;;3.55;;
76617;SDS011;65509;42.816;74.648;2023-04-15T05:16:26;32.15;;;4.43;;
76617;SDS011;65509;42.816;74.648;2023-04-15T05:18:52;18.10;;;3.05;;
76617;SDS011;65509;42.816;74.648;2023-04-15T05:21:17;20.50;;;3.58;;
76617;SDS011;65509;42.816;74.648;2023-04-15T05:23:43;12.75;;;2.92;;
76617;SDS011;65509;42.816;74.648;2023-04-15T05:26:08;19.98;;;2.85;;
76617;SDS011;65509;42.816;74.648;2023-04-15T05:28:34;20.63;;;3.63;;
76617;SDS011;65509;42.816;74.648;2023-04-15T05:30:59;17.25;;;3.22;;
76617;SDS011;65509;42.816;74.648;2023-04-15T05:33:25;30.55;;;4.35;;
76617;SDS011;65509;42.816;74.648;2023-04-15T05:35:51;18.75;;;3.58;;
76617;SDS011;65509;42.816;74.648;2023-04-15T05:38:17;23.15;;;4.30;;
76617;SDS011;65509;42.816;74.648;2023-04-15T05:40:42;21.20;;;3.50;;
76617;SDS011;65509;42.816;74.648;2023-04-15T05:43:08;23.30;;;3.95;;
76617;SDS011;65509;42.816;74.648;2023-04-15T05:45:33;20.48;;;3.67;;
76617;SDS011;65509;42.816;74.648;2023-04-15T05:47:58;21.30;;;3.75;;
76617;SDS011;65509;42.816;74.648;2023-04-15T05:50:27;20.77;;;4.40;;
76617;SDS011;65509;42.816;74.648;2023-04-15T05:52:52;15.93;;;3.05;;
76617;SDS011;65509;42.816;74.648;2023-04-15T05:55:18;18.67;;;3.53;;
76617;SDS011;65509;42.816;74.648;2023-04-15T05:57:43;15.25;;;2.28;;
76617;SDS011;65509;42.816;74.648;2023-04-15T06:00:09;13.35;;;2.60;;
76617;SDS011;65509;42.816;74.648;2023-04-15T06:02:35;23.95;;;3.90;;
76617;SDS011;65509;42.816;74.648;2023-04-15T06:05:01;10.18;;;2.20;;
76617;SDS011;65509;42.816;74.648;2023-04-15T06:07:26;19.52;;;3.42;;
76617;SDS011;65509;42.816;74.648;2023-04-15T06:09:51;15.88;;;2.78;;
76617;SDS011;65509;42.816;74.648;2023-04-15T06:12:17;15.77;;;2.63;;
76617;SDS011;65509;42.816;74.648;2023-04-15T06:14:42;9.75;;;2.03;;
76617;SDS011;65509;42.816;74.648;2023-04-15T06:17:08;11.63;;;2.47;;
76617;SDS011;65509;42.816;74.648;2023-04-15T06:19:33;21.67;;;3.15;;
76617;SDS011;65509;42.816;74.648;2023-04-15T06:22:00;13.93;;;2.47;;
76617;SDS011;65509;42.816;74.648;2023-04-15T06:24:30;21.17;;;3.55;;
76617;SDS011;65509;42.816;74.648;2023-04-15T06:26:57;16.85;;;2.92;;
76617;SDS011;65509;42.816;74.648;2023-04-15T06:29:22;27.65;;;3.63;;
76617;SDS011;65509;42.816;74.648;2023-04-15T06:31:48;16.55;;;2.35;;
76617;SDS011;65509;42.816;74.648;2023-04-15T06:34:13;12.43;;;2.50;;
76617;SDS011;65509;42.816;74.648;2023-04-15T06:36:39;13.95;;;2.42;;
76617;SDS011;65509;42.816;74.648;2023-04-15T06:39:04;13.55;;;2.65;;
76617;SDS011;65509;42.816;74.648;2023-04-15T06:41:30;22.38;;;3.00;;
76617;SDS011;65509;42.816;74.648;2023-04-15T06:46:34;17.02;;;3.13;;
76617;SDS011;65509;42.816;74.648;2023-04-15T06:51:53;19.40;;;2.83;;
76617;SDS011;65509;42.816;74.648;2023-04-15T06:54:18;21.42;;;3.55;;
76617;SDS011;65509;42.816;74.648;2023-04-15T06:56:44;12.38;;;2.53;;
76617;SDS011;65509;42.816;74.648;2023-04-15T06:59:09;24.88;;;3.05;;
76617;SDS011;65509;42.816;74.648;2023-04-15T07:01:35;29.33;;;6.38;;
76617;SDS011;65509;42.816;74.648;2023-04-15T07:04:00;47.92;;;16.27;;
76617;SDS011;65509;42.816;74.648;2023-04-15T07:06:26;45.13;;;12.90;;
76617;SDS011;65509;42.816;74.648;2023-04-15T07:08:52;17.25;;;3.92;;
76617;SDS011;65509;42.816;74.648;2023-04-15T07:11:18;17.65;;;3.25;;
76617;SDS011;65509;42.816;74.648;2023-04-15T07:13:44;23.77;;;3.33;;
76617;SDS011;65509;42.816;74.648;2023-04-15T07:16:10;14.88;;;3.33;;
76617;SDS011;65509;42.816;74.648;2023-04-15T07:18:36;26.75;;;6.40;;
76617;SDS011;65509;42.816;74.648;2023-04-15T07:21:01;20.92;;;4.57;;
76617;SDS011;65509;42.816;74.648;2023-04-15T07:23:27;23.08;;;5.68;;
76617;SDS011;65509;42.816;74.648;2023-04-15T07:25:52;20.40;;;3.85;;
76617;SDS011;65509;42.816;74.648;2023-04-15T07:28:18;26.38;;;3.95;;
76617;SDS011;65509;42.816;74.648;2023-04-15T07:30:46;17.45;;;3.17;;
76617;SDS011;65509;42.816;74.648;2023-04-15T07:33:12;17.80;;;3.47;;
76617;SDS011;65509;42.816;74.648;2023-04-15T07:35:38;25.63;;;5.82;;
76617;SDS011;65509;42.816;74.648;2023-04-15T07:38:03;24.52;;;3.90;;
76617;SDS011;65509;42.816;74.648;2023-04-15T07:40:29;28.73;;;5.13;;
76617;SDS011;65509;42.816;74.648;2023-04-15T07:42:57;15.55;;;3.65;;
76617;SDS011;65509;42.816;74.648;2023-04-15T07:45:23;32.67;;;4.32;;
76617;SDS011;65509;42.816;74.648;2023-04-15T07:47:48;24.08;;;3.03;;
76617;SDS011;65509;42.816;74.648;2023-04-15T07:50:14;20.67;;;3.47;;
76617;SDS011;65509;42.816;74.648;2023-04-15T07:52:44;23.10;;;3.47;;
76617;SDS011;65509;42.816;74.648;2023-04-15T07:55:10;33.63;;;6.32;;
76617;SDS011;65509;42.816;74.648;2023-04-15T07:57:36;34.30;;;7.60;;
76617;SDS011;65509;42.816;74.648;2023-04-15T08:00:01;29.02;;;4.25;;
76617;SDS011;65509;42.816;74.648;2023-04-15T08:02:29;31.02;;;4.40;;
76617;SDS011;65509;42.816;74.648;2023-04-15T08:04:55;18.02;;;3.10;;
76617;SDS011;65509;42.816;74.648;2023-04-15T08:07:22;17.55;;;2.72;;
76617;SDS011;65509;42.816;74.648;2023-04-15T08:09:47;14.68;;;2.40;;
76617;SDS011;65509;42.816;74.648;2023-04-15T08:12:12;21.02;;;2.70;;
76617;SDS011;65509;42.816;74.648;2023-04-15T08:14:39;25.17;;;3.53;;
76617;SDS011;65509;42.816;74.648;2023-04-15T08:17:04;25.48;;;4.82;;
76617;SDS011;65509;42.816;74.648;2023-04-15T08:19:33;35.28;;;9.00;;
76617;SDS011;65509;42.816;74.648;2023-04-15T08:21:58;26.95;;;5.60;;
76617;SDS011;65509;42.816;74.648;2023-04-15T08:24:27;24.08;;;4.72;;
76617;SDS011;65509;42.816;74.648;2023-04-15T08:26:52;19.20;;;3.72;;
76617;SDS011;65509;42.816;74.648;2023-04-15T08:29:18;15.38;;;2.90;;
76617;SDS011;65509;42.816;74.648;2023-04-15T08:31:43;19.55;;;2.83;;
76617;SDS011;65509;42.816;74.648;2023-04-15T08:34:12;19.65;;;3.05;;
76617;SDS011;65509;42.816;74.648;2023-04-15T08:36:38;26.50;;;3.53;;
76617;SDS011;65509;42.816;74.648;2023-04-15T08:39:03;16.17;;;3.40;;
76617;SDS011;65509;42.816;74.648;2023-04-15T08:41:50;24.15;;;5.43;;
76617;SDS011;65509;42.816;74.648;2023-04-15T08:44:15;14.68;;;3.75;;
76617;SDS011;65509;42.816;74.648;2023-04-15T08:46:41;18.17;;;3.45;;
76617;SDS011;65509;42.816;74.648;2023-04-15T08:49:10;18.52;;;2.97;;
76617;SDS011;65509;42.816;74.648;2023-04-15T08:51:39;17.50;;;2.70;;
76617;SDS011;65509;42.816;74.648;2023-04-15T08:54:05;17.50;;;2.15;;
76617;SDS011;65509;42.816;74.648;2023-04-15T08:56:34;26.17;;;5.95;;
76617;SDS011;65509;42.816;74.648;2023-04-15T08:59:22;25.52;;;3.72;;
76617;SDS011;65509;42.816;74.648;2023-04-15T09:01:51;15.38;;;2.80;;
76617;SDS011;65509;42.816;74.648;2023-04-15T09:04:20;16.40;;;3.15;;
76617;SDS011;65509;42.816;74.648;2023-04-15T09:06:55;20.17;;;3.47;;
76617;SDS011;65509;42.816;74.648;2023-04-15T09:09:21;14.13;;;2.75;;
76617;SDS011;65509;42.816;74.648;2023-04-15T09:11:46;13.15;;;2.53;;
76617;SDS011;65509;42.816;74.648;2023-04-15T09:14:14;23.33;;;3.42;;
76617;SDS011;65509;42.816;74.648;2023-04-15T09:16:58;29.10;;;7.57;;
76617;SDS011;65509;42.816;74.648;2023-04-15T09:19:26;20.92;;;4.03;;
76617;SDS011;65509;42.816;74.648;2023-04-15T09:21:52;20.30;;;3.60;;
76617;SDS011;65509;42.816;74.648;2023-04-15T09:24:21;33.75;;;4.65;;
76617;SDS011;65509;42.816;74.648;2023-04-15T09:26:47;48.85;;;7.22;;
76617;SDS011;65509;42.816;74.648;2023-04-15T09:29:15;27.38;;;4.72;;
76617;SDS011;65509;42.816;74.648;2023-04-15T09:31:45;47.50;;;6.10;;
76617;SDS011;65509;42.816;74.648;2023-04-15T09:34:11;23.48;;;4.28;;
76617;SDS011;65509;42.816;74.648;2023-04-15T09:39:08;28.85;;;5.32;;
76617;SDS011;65509;42.816;74.648;2023-04-15T09:41:33;24.55;;;5.28;;
76617;SDS011;65509;42.816;74.648;2023-04-15T09:43:59;23.40;;;4.45;;
76617;SDS011;65509;42.816;74.648;2023-04-15T09:46:43;17.92;;;3.83;;
76617;SDS011;65509;42.816;74.648;2023-04-15T09:49:10;31.60;;;5.82;;
76617;SDS011;65509;42.816;74.648;2023-04-15T09:51:38;22.95;;;5.10;;
76617;SDS011;65509;42.816;74.648;2023-04-15T09:54:07;24.50;;;4.32;;
76617;SDS011;65509;42.816;74.648;2023-04-15T09:56:38;27.67;;;4.57;;
76617;SDS011;65509;42.816;74.648;2023-04-15T09:59:07;22.05;;;4.63;;
76617;SDS011;65509;42.816;74.648;2023-04-15T10:01:36;25.00;;;4.90;;
76617;SDS011;65509;42.816;74.648;2023-04-15T10:04:02;19.63;;;4.60;;
76617;SDS011;65509;42.816;74.648;2023-04-15T10:06:28;15.07;;;3.53;;
76617;SDS011;65509;42.816;74.648;2023-04-15T10:08:54;18.45;;;3.90;;
76617;SDS011;65509;42.816;74.648;2023-04-15T10:11:20;15.45;;;3.80;;
76617;SDS011;65509;42.816;74.648;2023-04-15T10:13:48;27.30;;;5.25;;
76617;SDS011;65509;42.816;74.648;2023-04-15T10:16:15;22.05;;;4.45;;
76617;SDS011;65509;42.816;74.648;2023-04-15T10:18:45;26.98;;;5.18;;
76617;SDS011;65509;42.816;74.648;2023-04-15T10:21:10;21.63;;;4.18;;
76617;SDS011;65509;42.816;74.648;2023-04-15T10:23:38;31.05;;;4.78;;
76617;SDS011;65509;42.816;74.648;2023-04-15T10:26:04;17.88;;;3.90;;
76617;SDS011;65509;42.816;74.648;2023-04-15T10:28:30;31.20;;;6.18;;
76617;SDS011;65509;42.816;74.648;2023-04-15T10:30:56;24.10;;;5.18;;
76617;SDS011;65509;42.816;74.648;2023-04-15T10:33:24;21.95;;;5.20;;
76617;SDS011;65509;42.816;74.648;2023-04-15T10:35:52;20.85;;;4.70;;
76617;SDS011;65509;42.816;74.648;2023-04-15T10:41:10;20.70;;;4.72;;
76617;SDS011;65509;42.816;74.648;2023-04-15T10:43:36;24.35;;;5.72;;
76617;SDS011;65509;42.816;74.648;2023-04-15T10:46:07;14.13;;;4.53;;
76617;SDS011;65509;42.816;74.648;2023-04-15T10:48:34;26.58;;;5.78;;
76617;SDS011;65509;42.816;74.648;2023-04-15T10:51:02;20.25;;;4.93;;
76617;SDS011;65509;42.816;74.648;2023-04-15T10:53:28;21.27;;;4.60;;
76617;SDS011;65509;42.816;74.648;2023-04-15T10:55:55;33.60;;;5.30;;
76617;SDS011;65509;42.816;74.648;2023-04-15T10:58:24;19.10;;;4.45;;
76617;SDS011;65509;42.816;74.648;2023-04-15T11:00:51;23.38;;;4.43;;
76617;SDS011;65509;42.816;74.648;2023-04-15T11:03:30;23.13;;;5.07;;
76617;SDS011;65509;42.816;74.648;2023-04-15T11:05:58;13.75;;;3.72;;
76617;SDS011;65509;42.816;74.648;2023-04-15T11:08:51;18.85;;;4.22;;
76617;SDS011;65509;42.816;74.648;2023-04-15T11:11:09;17.98;;;3.83;;
76617;SDS011;65509;42.816;74.648;2023-04-15T11:13:34;27.20;;;4.72;;
76617;SDS011;65509;42.816;74.648;2023-04-15T11:16:00;29.98;;;5.10;;
76617;SDS011;65509;42.816;74.648;2023-04-15T11:18:27;19.63;;;4.07;;
76617;SDS011;65509;42.816;74.648;2023-04-15T11:20:55;23.55;;;4.32;;
76617;SDS011;65509;42.816;74.648;2023-04-15T11:23:33;20.73;;;4.47;;
76617;SDS011;65509;42.816;74.648;2023-04-15T11:25:59;21.13;;;5.55;;
76617;SDS011;65509;42.816;74.648;2023-04-15T11:28:25;34.45;;;6.63;;
76617;SDS011;65509;42.816;74.648;2023-04-15T11:30:54;27.75;;;5.20;;
76617;SDS011;65509;42.816;74.648;2023-04-15T11:33:20;22.42;;;5.03;;
76617;SDS011;65509;42.816;74.648;2023-04-15T11:35:46;25.33;;;5.28;;
76617;SDS011;65509;42.816;74.648;2023-04-15T11:38:12;21.48;;;4.78;;
76617;SDS011;65509;42.816;74.648;2023-04-15T11:40:40;31.65;;;8.00;;
76617;SDS011;65509;42.816;74.648;2023-04-15T11:43:15;24.95;;;5.30;;
76617;SDS011;65509;42.816;74.648;2023-04-15T11:45:54;27.73;;;5.90;;
76617;SDS011;65509;42.816;74.648;2023-04-15T11:48:27;25.80;;;5.80;;
76617;SDS011;65509;42.816;74.648;2023-04-15T11:51:02;32.85;;;7.03;;
76617;SDS011;65509;42.816;74.648;2023-04-15T11:54:02;22.27;;;5.80;;
76617;SDS011;65509;42.816;74.648;2023-04-15T11:56:24;27.33;;;6.55;;
76617;SDS011;65509;42.816;74.648;2023-04-15T11:58:56;30.52;;;7.28;;
76617;SDS011;65509;42.816;74.648;2023-04-15T12:01:31;21.55;;;7.25;;
76617;SDS011;65509;42.816;74.648;2023-04-15T12:03:57;22.88;;;7.03;;
76617;SDS011;65509;42.816;74.648;2023-04-15T12:06:24;29.67;;;8.93;;
76617;SDS011;65509;42.816;74.648;2023-04-15T12:11:39;33.97;;;8.52;;
76617;SDS011;65509;42.816;74.648;2023-04-15T12:14:05;36.25;;;8.95;;
76617;SDS011;65509;42.816;74.648;2023-04-15T12:16:32;36.92;;;14.27;;
76617;SDS011;65509;42.816;74.648;2023-04-15T12:18:58;41.53;;;17.67;;
76617;SDS011;65509;42.816;74.648;2023-04-15T12:21:25;48.58;;;19.65;;
76617;SDS011;65509;42.816;74.648;2023-04-15T12:23:52;53.35;;;20.13;;
76617;SDS011;65509;42.816;74.648;2023-04-15T12:26:17;37.00;;;13.07;;
76617;SDS011;65509;42.816;74.648;2023-04-15T12:28:52;43.42;;;12.02;;
76617;SDS011;65509;42.816;74.648;2023-04-15T12:31:18;31.83;;;10.68;;
76617;SDS011;65509;42.816;74.648;2023-04-15T12:33:46;36.50;;;11.20;;
76617;SDS011;65509;42.816;74.648;2023-04-15T12:36:12;39.15;;;11.43;;
76617;SDS011;65509;42.816;74.648;2023-04-15T12:38:37;32.90;;;10.68;;
76617;SDS011;65509;42.816;74.648;2023-04-15T12:41:03;32.35;;;9.25;;
76617;SDS011;65509;42.816;74.648;2023-04-15T12:43:28;38.33;;;10.50;;
76617;SDS011;65509;42.816;74.648;2023-04-15T12:45:54;30.45;;;9.13;;
76617;SDS011;65509;42.816;74.648;2023-04-15T12:48:19;32.58;;;9.20;;
76617;SDS011;65509;42.816;74.648;2023-04-15T12:50:45;31.83;;;9.02;;
76617;SDS011;65509;42.816;74.648;2023-04-15T12:53:10;34.80;;;8.95;;
76617;SDS011;65509;42.816;74.648;2023-04-15T12:55:45;24.60;;;7.22;;
76617;SDS011;65509;42.816;74.648;2023-04-15T12:58:10;26.98;;;8.40;;
76617;SDS011;65509;42.816;74.648;2023-04-15T13:00:36;35.00;;;10.15;;
76617;SDS011;65509;42.816;74.648;2023-04-15T13:03:04;33.70;;;10.65;;
76617;SDS011;65509;42.816;74.648;2023-04-15T13:05:30;38.58;;;9.65;;
76617;SDS011;65509;42.816;74.648;2023-04-15T13:07:55;28.25;;;8.63;;
76617;SDS011;65509;42.816;74.648;2023-04-15T13:10:21;26.45;;;8.50;;
76617;SDS011;65509;42.816;74.648;2023-04-15T13:12:48;39.30;;;9.00;;
76617;SDS011;65509;42.816;74.648;2023-04-15T13:15:14;28.42;;;8.95;;
76617;SDS011;65509;42.816;74.648;2023-04-15T13:17:43;27.55;;;8.82;;
76617;SDS011;65509;42.816;74.648;2023-04-15T13:20:09;24.13;;;7.85;;
76617;SDS011;65509;42.816;74.648;2023-04-15T13:22:34;36.30;;;8.88;;
76617;SDS011;65509;42.816;74.648;2023-04-15T13:25:00;40.17;;;9.95;;
76617;SDS011;65509;42.816;74.648;2023-04-15T13:27:43;36.60;;;10.63;;
76617;SDS011;65509;42.816;74.648;2023-04-15T13:30:08;30.30;;;11.15;;
76617;SDS011;65509;42.816;74.648;2023-04-15T13:32:37;35.97;;;12.32;;
76617;SDS011;65509;42.816;74.648;2023-04-15T13:35:05;37.10;;;13.82;;
76617;SDS011;65509;42.816;74.648;2023-04-15T13:37:30;35.85;;;14.82;;
76617;SDS011;65509;42.816;74.648;2023-04-15T13:39:56;43.88;;;15.55;;
76617;SDS011;65509;42.816;74.648;2023-04-15T13:42:22;35.47;;;15.40;;
76617;SDS011;65509;42.816;74.648;2023-04-15T13:44:50;63.47;;;18.60;;
76617;SDS011;65509;42.816;74.648;2023-04-15T13:47:16;68.60;;;20.00;;
76617;SDS011;65509;42.816;74.648;2023-04-15T13:49:43;49.22;;;18.83;;
76617;SDS011;65509;42.816;74.648;2023-04-15T13:52:08;53.90;;;20.55;;
76617;SDS011;65509;42.816;74.648;2023-04-15T13:54:34;36.40;;;15.60;;
76617;SDS011;65509;42.816;74.648;2023-04-15T13:56:59;36.22;;;11.55;;
76617;SDS011;65509;42.816;74.648;2023-04-15T13:59:26;29.42;;;9.27;;
76617;SDS011;65509;42.816;74.648;2023-04-15T14:01:51;32.53;;;8.68;;
76617;SDS011;65509;42.816;74.648;2023-04-15T14:04:17;19.33;;;7.38;;
76617;SDS011;65509;42.816;74.648;2023-04-15T14:06:42;23.83;;;8.52;;
76617;SDS011;65509;42.816;74.648;2023-04-15T14:09:08;21.25;;;6.90;;
76617;SDS011;65509;42.816;74.648;2023-04-15T14:11:52;20.80;;;7.32;;
76617;SDS011;65509;42.816;74.648;2023-04-15T14:14:17;20.20;;;5.95;;
76617;SDS011;65509;42.816;74.648;2023-04-15T14:16:42;17.48;;;6.15;;
76617;SDS011;65509;42.816;74.648;2023-04-15T14:19:08;21.15;;;6.03;;
76617;SDS011;65509;42.816;74.648;2023-04-15T14:21:33;17.58;;;4.65;;
76617;SDS011;65509;42.816;74.648;2023-04-15T14:24:02;26.27;;;6.03;;
76617;SDS011;65509;42.816;74.648;2023-04-15T14:26:27;20.15;;;6.75;;
76617;SDS011;65509;42.816;74.648;2023-04-15T14:28:52;27.40;;;8.57;;
76617;SDS011;65509;42.816;74.648;2023-04-15T14:31:18;25.90;;;8.45;;